sensor_id;sensor_type;location;lat;lon;timestamp;P1;durP1;ratioP1;P2;durP2;ratioP2
1336;SDS011;662;48.814;9.318;2023-03-01T00:01:03;21.43;;;19.20;;
1336;SDS011;662;48.814;9.318;2023-03-01T00:03:33;22.07;;;19.63;;
1336;SDS011;662;48.814;9.318;2023-03-01T00:05:59;21.80;;;19.60;;
1336;SDS011;662;48.814;9.318;2023-03-01T00:08:25;21.63;;;19.50;;
1336;SDS011;662;48.814;9.318;2023-03-01T00:13:32;21.50;;;19.20;;
1336;SDS011;662;48.814;9.318;2023-03-01T00:15:58;21.50;;;19.40;;
1336;SDS011;662;48.814;9.318;2023-03-01T00:18:37;20.87;;;18.80;;
1336;SDS011;662;48.814;9.318;2023-03-01T00:21:03;22.50;;;20.20;;
1336;SDS011;662;48.814;9.318;2023-03-01T00:23:30;23.33;;;20.83;;
1336;SDS011;662;48.814;9.318;2023-03-01T00:25:56;23.63;;;20.30;;
1336;SDS011;662;48.814;9.318;2023-03-01T00:28:22;22.87;;;20.50;;
1336;SDS011;662;48.814;9.318;2023-03-01T00:30:48;22.83;;;20.23;;
1336;SDS011;662;48.814;9.318;2023-03-01T00:33:14;24.50;;;21.83;;
1336;SDS011;662;48.814;9.318;2023-03-01T00:35:39;24.93;;;19.77;;
1336;SDS011;662;48.814;9.318;2023-03-01T00:38:05;21.60;;;19.30;;
1336;SDS011;662;48.814;9.318;2023-03-01T00:40:32;22.57;;;20.17;;
1336;SDS011;662;48.814;9.318;2023-03-01T00:42:59;22.37;;;20.07;;
1336;SDS011;662;48.814;9.318;2023-03-01T00:45:26;21.80;;;19.30;;
1336;SDS011;662;48.814;9.318;2023-03-01T00:47:51;22.80;;;20.40;;
1336;SDS011;662;48.814;9.318;2023-03-01T00:50:17;21.00;;;18.80;;
1336;SDS011;662;48.814;9.318;2023-03-01T00:52:44;21.97;;;19.70;;
1336;SDS011;662;48.814;9.318;2023-03-01T00:55:10;23.10;;;20.70;;
1336;SDS011;662;48.814;9.318;2023-03-01T00:57:36;22.67;;;20.23;;
1336;SDS011;662;48.814;9.318;2023-03-01T01:00:03;22.07;;;19.23;;
1336;SDS011;662;48.814;9.318;2023-03-01T01:02:32;22.30;;;20.20;;
1336;SDS011;662;48.814;9.318;2023-03-01T01:04:58;22.00;;;19.73;;
1336;SDS011;662;48.814;9.318;2023-03-01T01:07:23;22.03;;;19.70;;
1336;SDS011;662;48.814;9.318;2023-03-01T01:09:49;21.13;;;18.73;;
1336;SDS011;662;48.814;9.318;2023-03-01T01:12:15;23.13;;;20.90;;
1336;SDS011;662;48.814;9.318;2023-03-01T01:14:40;21.57;;;19.33;;
1336;SDS011;662;48.814;9.318;2023-03-01T01:17:06;22.23;;;19.93;;
1336;SDS011;662;48.814;9.318;2023-03-01T01:19:32;22.37;;;20.17;;
1336;SDS011;662;48.814;9.318;2023-03-01T01:21:57;21.00;;;18.90;;
1336;SDS011;662;48.814;9.318;2023-03-01T01:24:23;23.03;;;20.67;;
1336;SDS011;662;48.814;9.318;2023-03-01T01:26:49;22.37;;;20.17;;
1336;SDS011;662;48.814;9.318;2023-03-01T01:29:14;23.87;;;20.53;;
1336;SDS011;662;48.814;9.318;2023-03-01T01:31:41;22.63;;;20.00;;
1336;SDS011;662;48.814;9.318;2023-03-01T01:34:08;22.33;;;19.93;;
1336;SDS011;662;48.814;9.318;2023-03-01T01:36:43;25.90;;;19.97;;
1336;SDS011;662;48.814;9.318;2023-03-01T01:39:09;22.57;;;20.17;;
1336;SDS011;662;48.814;9.318;2023-03-01T01:41:38;23.60;;;21.20;;
1336;SDS011;662;48.814;9.318;2023-03-01T01:44:23;23.27;;;20.33;;
1336;SDS011;662;48.814;9.318;2023-03-01T01:49:27;21.63;;;19.30;;
1336;SDS011;662;48.814;9.318;2023-03-01T01:52:02;21.80;;;19.50;;
1336;SDS011;662;48.814;9.318;2023-03-01T01:54:37;21.10;;;18.90;;
1336;SDS011;662;48.814;9.318;2023-03-01T01:58:01;23.37;;;20.00;;
1336;SDS011;662;48.814;9.318;2023-03-01T02:00:11;22.60;;;20.20;;
1336;SDS011;662;48.814;9.318;2023-03-01T02:02:45;23.80;;;21.00;;
1336;SDS011;662;48.814;9.318;2023-03-01T02:07:45;23.07;;;19.40;;
1336;SDS011;662;48.814;9.318;2023-03-01T02:10:13;23.43;;;21.03;;
1336;SDS011;662;48.814;9.318;2023-03-01T02:12:39;22.80;;;20.47;;
1336;SDS011;662;48.814;9.318;2023-03-01T02:15:05;21.70;;;19.40;;
1336;SDS011;662;48.814;9.318;2023-03-01T02:17:31;21.33;;;18.87;;
1336;SDS011;662;48.814;9.318;2023-03-01T02:22:53;21.70;;;19.47;;
1336;SDS011;662;48.814;9.318;2023-03-01T02:30:32;22.23;;;19.60;;
1336;SDS011;662;48.814;9.318;2023-03-01T02:32:58;21.30;;;19.03;;
1336;SDS011;662;48.814;9.318;2023-03-01T02:35:33;22.40;;;20.00;;
1336;SDS011;662;48.814;9.318;2023-03-01T02:38:02;22.73;;;20.07;;
1336;SDS011;662;48.814;9.318;2023-03-01T02:40:31;22.23;;;20.03;;
1336;SDS011;662;48.814;9.318;2023-03-01T02:42:59;22.70;;;20.13;;
1336;SDS011;662;48.814;9.318;2023-03-01T02:45:25;21.53;;;19.23;;
1336;SDS011;662;48.814;9.318;2023-03-01T02:47:55;23.27;;;20.80;;
1336;SDS011;662;48.814;9.318;2023-03-01T02:53:34;22.53;;;20.20;;
1336;SDS011;662;48.814;9.318;2023-03-01T02:55:54;25.70;;;19.13;;
1336;SDS011;662;48.814;9.318;2023-03-01T02:58:20;21.90;;;19.70;;
1336;SDS011;662;48.814;9.318;2023-03-01T03:00:45;21.50;;;19.10;;
1336;SDS011;662;48.814;9.318;2023-03-01T03:03:14;20.97;;;18.77;;
1336;SDS011;662;48.814;9.318;2023-03-01T03:05:42;22.60;;;19.50;;
1336;SDS011;662;48.814;9.318;2023-03-01T03:08:07;22.33;;;19.33;;
1336;SDS011;662;48.814;9.318;2023-03-01T03:10:35;22.77;;;19.53;;
1336;SDS011;662;48.814;9.318;2023-03-01T03:13:06;21.43;;;19.13;;
1336;SDS011;662;48.814;9.318;2023-03-01T03:15:35;22.70;;;19.80;;
1336;SDS011;662;48.814;9.318;2023-03-01T03:18:01;21.90;;;19.37;;
1336;SDS011;662;48.814;9.318;2023-03-01T03:20:28;22.90;;;20.43;;
1336;SDS011;662;48.814;9.318;2023-03-01T03:22:55;20.77;;;18.37;;
1336;SDS011;662;48.814;9.318;2023-03-01T03:25:23;22.33;;;19.50;;
1336;SDS011;662;48.814;9.318;2023-03-01T03:27:50;21.70;;;19.37;;
1336;SDS011;662;48.814;9.318;2023-03-01T03:30:21;24.80;;;19.50;;
1336;SDS011;662;48.814;9.318;2023-03-01T03:32:49;23.93;;;20.47;;
1336;SDS011;662;48.814;9.318;2023-03-01T03:35:22;24.90;;;20.70;;
1336;SDS011;662;48.814;9.318;2023-03-01T03:37:55;21.00;;;18.57;;
1336;SDS011;662;48.814;9.318;2023-03-01T03:40:34;25.30;;;20.50;;
1336;SDS011;662;48.814;9.318;2023-03-01T03:43:02;20.60;;;18.03;;
1336;SDS011;662;48.814;9.318;2023-03-01T03:45:28;23.50;;;19.07;;
1336;SDS011;662;48.814;9.318;2023-03-01T03:47:54;24.73;;;20.77;;
1336;SDS011;662;48.814;9.318;2023-03-01T03:50:20;21.83;;;19.57;;
1336;SDS011;662;48.814;9.318;2023-03-01T03:52:45;25.33;;;20.30;;
1336;SDS011;662;48.814;9.318;2023-03-01T03:55:11;24.00;;;20.40;;
1336;SDS011;662;48.814;9.318;2023-03-01T03:57:38;25.70;;;19.43;;
1336;SDS011;662;48.814;9.318;2023-03-01T04:00:04;22.07;;;19.70;;
1336;SDS011;662;48.814;9.318;2023-03-01T04:02:37;25.53;;;22.27;;
1336;SDS011;662;48.814;9.318;2023-03-01T04:05:04;23.03;;;20.13;;
1336;SDS011;662;48.814;9.318;2023-03-01T04:07:30;23.00;;;20.03;;
1336;SDS011;662;48.814;9.318;2023-03-01T04:09:55;22.93;;;20.53;;
1336;SDS011;662;48.814;9.318;2023-03-01T04:12:21;23.57;;;20.67;;
1336;SDS011;662;48.814;9.318;2023-03-01T04:14:48;22.80;;;20.17;;
1336;SDS011;662;48.814;9.318;2023-03-01T04:17:13;23.13;;;20.50;;
1336;SDS011;662;48.814;9.318;2023-03-01T04:19:39;23.37;;;19.70;;
1336;SDS011;662;48.814;9.318;2023-03-01T04:22:05;26.77;;;21.93;;
1336;SDS011;662;48.814;9.318;2023-03-01T04:24:34;23.93;;;20.07;;
1336;SDS011;662;48.814;9.318;2023-03-01T04:27:00;23.87;;;21.30;;
1336;SDS011;662;48.814;9.318;2023-03-01T04:29:26;23.23;;;20.70;;
1336;SDS011;662;48.814;9.318;2023-03-01T04:31:52;24.70;;;21.60;;
1336;SDS011;662;48.814;9.318;2023-03-01T04:34:18;23.00;;;20.57;;
1336;SDS011;662;48.814;9.318;2023-03-01T04:36:44;23.90;;;21.27;;
1336;SDS011;662;48.814;9.318;2023-03-01T04:39:09;25.23;;;21.13;;
1336;SDS011;662;48.814;9.318;2023-03-01T04:41:38;25.10;;;20.40;;
1336;SDS011;662;48.814;9.318;2023-03-01T04:44:05;25.27;;;19.53;;
1336;SDS011;662;48.814;9.318;2023-03-01T04:46:31;26.13;;;19.27;;
1336;SDS011;662;48.814;9.318;2023-03-01T04:48:57;26.97;;;20.47;;
1336;SDS011;662;48.814;9.318;2023-03-01T04:51:22;26.73;;;21.47;;
1336;SDS011;662;48.814;9.318;2023-03-01T04:53:48;26.40;;;20.00;;
1336;SDS011;662;48.814;9.318;2023-03-01T04:56:14;23.03;;;19.90;;
1336;SDS011;662;48.814;9.318;2023-03-01T04:58:40;24.80;;;19.87;;
1336;SDS011;662;48.814;9.318;2023-03-01T05:01:13;24.27;;;20.50;;
1336;SDS011;662;48.814;9.318;2023-03-01T05:03:44;24.80;;;20.50;;
1336;SDS011;662;48.814;9.318;2023-03-01T05:06:14;23.67;;;19.80;;
1336;SDS011;662;48.814;9.318;2023-03-01T05:08:41;24.93;;;20.57;;
1336;SDS011;662;48.814;9.318;2023-03-01T05:11:07;25.50;;;21.10;;
1336;SDS011;662;48.814;9.318;2023-03-01T05:13:34;24.90;;;19.83;;
1336;SDS011;662;48.814;9.318;2023-03-01T05:16:04;25.13;;;20.27;;
1336;SDS011;662;48.814;9.318;2023-03-01T05:18:31;23.33;;;19.80;;
1336;SDS011;662;48.814;9.318;2023-03-01T05:21:08;25.50;;;20.10;;
1336;SDS011;662;48.814;9.318;2023-03-01T05:23:35;23.50;;;19.70;;
1336;SDS011;662;48.814;9.318;2023-03-01T05:26:01;25.50;;;18.90;;
1336;SDS011;662;48.814;9.318;2023-03-01T05:28:29;28.67;;;21.40;;
1336;SDS011;662;48.814;9.318;2023-03-01T05:30:55;22.73;;;19.00;;
1336;SDS011;662;48.814;9.318;2023-03-01T05:33:22;26.10;;;20.77;;
1336;SDS011;662;48.814;9.318;2023-03-01T05:35:48;24.77;;;20.63;;
1336;SDS011;662;48.814;9.318;2023-03-01T05:38:15;29.03;;;21.43;;
1336;SDS011;662;48.814;9.318;2023-03-01T05:40:42;27.13;;;20.03;;
1336;SDS011;662;48.814;9.318;2023-03-01T05:43:09;27.17;;;19.07;;
1336;SDS011;662;48.814;9.318;2023-03-01T05:45:35;26.90;;;21.20;;
1336;SDS011;662;48.814;9.318;2023-03-01T05:48:02;25.10;;;20.80;;
1336;SDS011;662;48.814;9.318;2023-03-01T05:50:31;24.33;;;19.40;;
1336;SDS011;662;48.814;9.318;2023-03-01T05:53:31;27.90;;;20.50;;
1336;SDS011;662;48.814;9.318;2023-03-01T05:55:51;26.60;;;22.70;;
1336;SDS011;662;48.814;9.318;2023-03-01T05:58:18;24.67;;;21.47;;
1336;SDS011;662;48.814;9.318;2023-03-01T06:00:45;26.87;;;20.83;;
1336;SDS011;662;48.814;9.318;2023-03-01T06:03:13;23.57;;;21.07;;
1336;SDS011;662;48.814;9.318;2023-03-01T06:05:40;26.67;;;20.80;;
1336;SDS011;662;48.814;9.318;2023-03-01T06:08:06;24.30;;;20.43;;
1336;SDS011;662;48.814;9.318;2023-03-01T06:10:34;28.83;;;20.43;;
1336;SDS011;662;48.814;9.318;2023-03-01T06:13:00;28.13;;;21.53;;
1336;SDS011;662;48.814;9.318;2023-03-01T06:15:26;29.73;;;21.00;;
1336;SDS011;662;48.814;9.318;2023-03-01T06:17:53;29.17;;;21.10;;
1336;SDS011;662;48.814;9.318;2023-03-01T06:20:23;27.33;;;21.23;;
1336;SDS011;662;48.814;9.318;2023-03-01T06:22:50;25.07;;;21.37;;
1336;SDS011;662;48.814;9.318;2023-03-01T06:25:17;26.33;;;19.50;;
1336;SDS011;662;48.814;9.318;2023-03-01T06:27:45;25.53;;;20.73;;
1336;SDS011;662;48.814;9.318;2023-03-01T06:30:11;24.93;;;20.53;;
1336;SDS011;662;48.814;9.318;2023-03-01T06:32:39;26.93;;;20.60;;
1336;SDS011;662;48.814;9.318;2023-03-01T06:35:11;30.00;;;20.73;;
1336;SDS011;662;48.814;9.318;2023-03-01T06:37:38;26.10;;;20.87;;
1336;SDS011;662;48.814;9.318;2023-03-01T06:40:05;26.17;;;22.10;;
1336;SDS011;662;48.814;9.318;2023-03-01T06:42:34;29.20;;;21.97;;
1336;SDS011;662;48.814;9.318;2023-03-01T06:45:00;31.80;;;22.10;;
1336;SDS011;662;48.814;9.318;2023-03-01T06:47:26;26.07;;;21.97;;
1336;SDS011;662;48.814;9.318;2023-03-01T06:49:51;29.20;;;23.37;;
1336;SDS011;662;48.814;9.318;2023-03-01T06:52:17;28.40;;;23.80;;
1336;SDS011;662;48.814;9.318;2023-03-01T06:54:43;27.13;;;23.00;;
1336;SDS011;662;48.814;9.318;2023-03-01T06:57:08;32.00;;;23.83;;
1336;SDS011;662;48.814;9.318;2023-03-01T06:59:34;23.27;;;20.80;;
1336;SDS011;662;48.814;9.318;2023-03-01T07:01:59;26.90;;;22.67;;
1336;SDS011;662;48.814;9.318;2023-03-01T07:04:25;28.10;;;22.97;;
1336;SDS011;662;48.814;9.318;2023-03-01T07:06:53;29.20;;;21.30;;
1336;SDS011;662;48.814;9.318;2023-03-01T07:09:20;27.40;;;22.63;;
1336;SDS011;662;48.814;9.318;2023-03-01T07:11:47;30.23;;;23.43;;
1336;SDS011;662;48.814;9.318;2023-03-01T07:14:13;30.00;;;22.53;;
1336;SDS011;662;48.814;9.318;2023-03-01T07:16:39;30.37;;;23.57;;
1336;SDS011;662;48.814;9.318;2023-03-01T07:19:04;26.13;;;22.60;;
1336;SDS011;662;48.814;9.318;2023-03-01T07:21:30;30.33;;;22.73;;
1336;SDS011;662;48.814;9.318;2023-03-01T07:23:56;34.00;;;25.17;;
1336;SDS011;662;48.814;9.318;2023-03-01T07:26:22;26.40;;;22.00;;
1336;SDS011;662;48.814;9.318;2023-03-01T07:28:47;28.67;;;23.77;;
1336;SDS011;662;48.814;9.318;2023-03-01T07:31:13;27.10;;;21.90;;
1336;SDS011;662;48.814;9.318;2023-03-01T07:33:39;30.37;;;22.00;;
1336;SDS011;662;48.814;9.318;2023-03-01T07:36:05;29.80;;;23.90;;
1336;SDS011;662;48.814;9.318;2023-03-01T07:38:31;30.87;;;22.97;;
1336;SDS011;662;48.814;9.318;2023-03-01T07:40:57;29.90;;;22.40;;
1336;SDS011;662;48.814;9.318;2023-03-01T07:43:24;26.50;;;21.17;;
1336;SDS011;662;48.814;9.318;2023-03-01T07:45:50;29.10;;;22.50;;
1336;SDS011;662;48.814;9.318;2023-03-01T07:48:16;29.70;;;22.50;;
1336;SDS011;662;48.814;9.318;2023-03-01T07:50:42;28.67;;;22.40;;
1336;SDS011;662;48.814;9.318;2023-03-01T07:53:08;32.93;;;21.30;;
1336;SDS011;662;48.814;9.318;2023-03-01T07:55:34;26.63;;;20.90;;
1336;SDS011;662;48.814;9.318;2023-03-01T07:57:59;28.87;;;22.67;;
1336;SDS011;662;48.814;9.318;2023-03-01T08:00:25;26.23;;;21.87;;
1336;SDS011;662;48.814;9.318;2023-03-01T08:02:51;30.00;;;22.80;;
1336;SDS011;662;48.814;9.318;2023-03-01T08:05:16;27.63;;;21.43;;
1336;SDS011;662;48.814;9.318;2023-03-01T08:07:42;31.37;;;22.30;;
1336;SDS011;662;48.814;9.318;2023-03-01T08:10:08;28.23;;;22.90;;
1336;SDS011;662;48.814;9.318;2023-03-01T08:12:34;25.07;;;20.13;;
1336;SDS011;662;48.814;9.318;2023-03-01T08:15:00;27.03;;;22.27;;
1336;SDS011;662;48.814;9.318;2023-03-01T08:17:25;27.90;;;22.00;;
1336;SDS011;662;48.814;9.318;2023-03-01T08:19:51;26.40;;;20.70;;
1336;SDS011;662;48.814;9.318;2023-03-01T08:22:16;29.23;;;21.80;;
1336;SDS011;662;48.814;9.318;2023-03-01T08:24:42;28.83;;;22.30;;
1336;SDS011;662;48.814;9.318;2023-03-01T08:27:08;26.93;;;20.83;;
1336;SDS011;662;48.814;9.318;2023-03-01T08:29:34;25.77;;;20.20;;
1336;SDS011;662;48.814;9.318;2023-03-01T08:31:59;31.70;;;22.27;;
1336;SDS011;662;48.814;9.318;2023-03-01T08:34:25;27.57;;;21.07;;
1336;SDS011;662;48.814;9.318;2023-03-01T08:36:51;26.07;;;20.30;;
1336;SDS011;662;48.814;9.318;2023-03-01T08:39:18;26.43;;;21.00;;
1336;SDS011;662;48.814;9.318;2023-03-01T08:41:45;26.90;;;20.00;;
1336;SDS011;662;48.814;9.318;2023-03-01T08:44:12;21.90;;;18.93;;
1336;SDS011;662;48.814;9.318;2023-03-01T08:46:39;25.07;;;19.60;;
1336;SDS011;662;48.814;9.318;2023-03-01T08:49:06;25.07;;;18.77;;
1336;SDS011;662;48.814;9.318;2023-03-01T08:51:33;25.13;;;18.90;;
1336;SDS011;662;48.814;9.318;2023-03-01T08:54:20;22.83;;;18.57;;
1336;SDS011;662;48.814;9.318;2023-03-01T08:56:46;20.57;;;18.30;;
1336;SDS011;662;48.814;9.318;2023-03-01T08:59:13;20.07;;;17.40;;
1336;SDS011;662;48.814;9.318;2023-03-01T09:01:40;23.67;;;19.77;;
1336;SDS011;662;48.814;9.318;2023-03-01T09:04:08;27.00;;;18.57;;
1336;SDS011;662;48.814;9.318;2023-03-01T09:06:35;20.17;;;18.03;;
1336;SDS011;662;48.814;9.318;2023-03-01T09:09:01;20.73;;;17.20;;
1336;SDS011;662;48.814;9.318;2023-03-01T09:11:28;21.50;;;17.63;;
1336;SDS011;662;48.814;9.318;2023-03-01T09:13:54;22.87;;;18.60;;
1336;SDS011;662;48.814;9.318;2023-03-01T09:16:20;18.33;;;16.30;;
1336;SDS011;662;48.814;9.318;2023-03-01T09:18:50;21.53;;;18.47;;
1336;SDS011;662;48.814;9.318;2023-03-01T09:21:17;21.83;;;17.97;;
1336;SDS011;662;48.814;9.318;2023-03-01T09:23:46;20.37;;;17.77;;
1336;SDS011;662;48.814;9.318;2023-03-01T09:26:13;21.47;;;19.10;;
1336;SDS011;662;48.814;9.318;2023-03-01T09:28:41;21.30;;;19.00;;
1336;SDS011;662;48.814;9.318;2023-03-01T09:31:07;19.70;;;17.00;;
1336;SDS011;662;48.814;9.318;2023-03-01T09:33:33;20.93;;;17.90;;
1336;SDS011;662;48.814;9.318;2023-03-01T09:35:59;20.57;;;18.40;;
1336;SDS011;662;48.814;9.318;2023-03-01T09:38:26;21.53;;;17.57;;
1336;SDS011;662;48.814;9.318;2023-03-01T09:40:52;22.33;;;17.67;;
1336;SDS011;662;48.814;9.318;2023-03-01T09:45:44;20.43;;;18.23;;
1336;SDS011;662;48.814;9.318;2023-03-01T09:48:16;20.90;;;18.37;;
1336;SDS011;662;48.814;9.318;2023-03-01T09:50:43;24.97;;;19.27;;
1336;SDS011;662;48.814;9.318;2023-03-01T09:53:19;23.40;;;20.07;;
1336;SDS011;662;48.814;9.318;2023-03-01T09:56:05;20.93;;;18.83;;
1336;SDS011;662;48.814;9.318;2023-03-01T10:01:48;23.30;;;19.57;;
1336;SDS011;662;48.814;9.318;2023-03-01T10:04:26;21.27;;;17.70;;
1336;SDS011;662;48.814;9.318;2023-03-01T10:09:46;20.07;;;17.93;;
1336;SDS011;662;48.814;9.318;2023-03-01T10:12:13;20.50;;;18.30;;
1336;SDS011;662;48.814;9.318;2023-03-01T10:17:30;22.93;;;18.30;;
1336;SDS011;662;48.814;9.318;2023-03-01T10:20:47;22.53;;;18.80;;
1336;SDS011;662;48.814;9.318;2023-03-01T10:23:24;21.33;;;18.03;;
1336;SDS011;662;48.814;9.318;2023-03-01T10:31:19;21.70;;;18.50;;
1336;SDS011;662;48.814;9.318;2023-03-01T10:33:48;19.87;;;17.50;;
1336;SDS011;662;48.814;9.318;2023-03-01T10:36:18;22.40;;;19.30;;
1336;SDS011;662;48.814;9.318;2023-03-01T10:38:48;22.20;;;18.10;;
1336;SDS011;662;48.814;9.318;2023-03-01T10:41:17;21.33;;;17.67;;
1336;SDS011;662;48.814;9.318;2023-03-01T10:51:46;27.73;;;20.03;;
1336;SDS011;662;48.814;9.318;2023-03-01T10:54:16;22.37;;;19.00;;
1336;SDS011;662;48.814;9.318;2023-03-01T10:57:22;23.20;;;19.53;;
1336;SDS011;662;48.814;9.318;2023-03-01T10:59:51;25.43;;;19.43;;
1336;SDS011;662;48.814;9.318;2023-03-01T11:02:29;22.10;;;18.60;;
1336;SDS011;662;48.814;9.318;2023-03-01T11:05:17;22.00;;;18.90;;
1336;SDS011;662;48.814;9.318;2023-03-01T11:10:20;22.40;;;18.10;;
1336;SDS011;662;48.814;9.318;2023-03-01T11:12:48;23.77;;;18.53;;
1336;SDS011;662;48.814;9.318;2023-03-01T11:15:19;23.33;;;18.70;;
1336;SDS011;662;48.814;9.318;2023-03-01T11:17:48;22.67;;;19.17;;
1336;SDS011;662;48.814;9.318;2023-03-01T11:20:20;23.20;;;18.33;;
1336;SDS011;662;48.814;9.318;2023-03-01T11:23:10;22.03;;;17.30;;
1336;SDS011;662;48.814;9.318;2023-03-01T11:25:43;21.27;;;18.43;;
1336;SDS011;662;48.814;9.318;2023-03-01T11:28:29;23.17;;;19.30;;
1336;SDS011;662;48.814;9.318;2023-03-01T11:30:56;21.20;;;17.80;;
1336;SDS011;662;48.814;9.318;2023-03-01T11:33:48;20.57;;;17.20;;
1336;SDS011;662;48.814;9.318;2023-03-01T11:36:58;20.63;;;17.80;;
1336;SDS011;662;48.814;9.318;2023-03-01T11:42:28;18.83;;;16.40;;
1336;SDS011;662;48.814;9.318;2023-03-01T11:45:08;19.40;;;17.00;;
1336;SDS011;662;48.814;9.318;2023-03-01T11:50:32;19.10;;;15.77;;
1336;SDS011;662;48.814;9.318;2023-03-01T11:53:22;19.60;;;15.77;;
1336;SDS011;662;48.814;9.318;2023-03-01T12:10:09;16.87;;;15.07;;
1336;SDS011;662;48.814;9.318;2023-03-01T12:12:55;16.40;;;14.70;;
1336;SDS011;662;48.814;9.318;2023-03-01T12:21:11;18.87;;;16.00;;
1336;SDS011;662;48.814;9.318;2023-03-01T12:31:51;17.13;;;15.33;;
1336;SDS011;662;48.814;9.318;2023-03-01T12:37:32;22.90;;;17.90;;
1336;SDS011;662;48.814;9.318;2023-03-01T12:48:37;18.30;;;15.20;;
1336;SDS011;662;48.814;9.318;2023-03-01T12:51:07;17.03;;;15.20;;
1336;SDS011;662;48.814;9.318;2023-03-01T12:53:40;15.80;;;14.20;;
1336;SDS011;662;48.814;9.318;2023-03-01T12:56:09;16.57;;;14.80;;
1336;SDS011;662;48.814;9.318;2023-03-01T13:04:07;16.67;;;14.97;;
1336;SDS011;662;48.814;9.318;2023-03-01T13:15:24;16.40;;;14.70;;
1336;SDS011;662;48.814;9.318;2023-03-01T13:36:07;18.40;;;16.30;;
1336;SDS011;662;48.814;9.318;2023-03-01T13:38:47;18.33;;;15.80;;
1336;SDS011;662;48.814;9.318;2023-03-01T13:41:14;23.27;;;17.37;;
1336;SDS011;662;48.814;9.318;2023-03-01T13:43:42;20.73;;;17.60;;
1336;SDS011;662;48.814;9.318;2023-03-01T13:46:14;19.40;;;16.00;;
1336;SDS011;662;48.814;9.318;2023-03-01T13:48:47;18.90;;;16.90;;
1336;SDS011;662;48.814;9.318;2023-03-01T13:51:21;18.83;;;16.70;;
1336;SDS011;662;48.814;9.318;2023-03-01T13:53:50;18.43;;;16.07;;
1336;SDS011;662;48.814;9.318;2023-03-01T13:56:20;16.80;;;14.93;;
1336;SDS011;662;48.814;9.318;2023-03-01T13:58:54;20.33;;;17.07;;
1336;SDS011;662;48.814;9.318;2023-03-01T14:01:29;18.60;;;16.03;;
1336;SDS011;662;48.814;9.318;2023-03-01T14:03:58;20.80;;;16.20;;
1336;SDS011;662;48.814;9.318;2023-03-01T14:06:25;20.27;;;16.77;;
1336;SDS011;662;48.814;9.318;2023-03-01T14:19:44;19.63;;;17.07;;
1336;SDS011;662;48.814;9.318;2023-03-01T14:22:20;19.77;;;16.33;;
1336;SDS011;662;48.814;9.318;2023-03-01T14:24:53;20.00;;;16.80;;
1336;SDS011;662;48.814;9.318;2023-03-01T14:27:38;19.77;;;17.57;;
1336;SDS011;662;48.814;9.318;2023-03-01T14:30:11;20.37;;;17.40;;
1336;SDS011;662;48.814;9.318;2023-03-01T14:32:40;21.13;;;17.13;;
1336;SDS011;662;48.814;9.318;2023-03-01T14:35:19;20.60;;;16.77;;
1336;SDS011;662;48.814;9.318;2023-03-01T14:37:46;19.20;;;16.33;;
1336;SDS011;662;48.814;9.318;2023-03-01T14:40:21;18.03;;;16.10;;
1336;SDS011;662;48.814;9.318;2023-03-01T14:42:49;19.23;;;17.23;;
1336;SDS011;662;48.814;9.318;2023-03-01T14:45:15;22.60;;;18.07;;
1336;SDS011;662;48.814;9.318;2023-03-01T14:47:43;19.63;;;17.47;;
1336;SDS011;662;48.814;9.318;2023-03-01T14:52:48;24.30;;;17.37;;
1336;SDS011;662;48.814;9.318;2023-03-01T14:55:26;20.20;;;16.60;;
1336;SDS011;662;48.814;9.318;2023-03-01T14:57:55;21.53;;;17.10;;
1336;SDS011;662;48.814;9.318;2023-03-01T15:00:26;20.10;;;15.90;;
1336;SDS011;662;48.814;9.318;2023-03-01T15:02:55;19.90;;;15.93;;
1336;SDS011;662;48.814;9.318;2023-03-01T15:05:27;20.17;;;16.07;;
1336;SDS011;662;48.814;9.318;2023-03-01T15:07:59;18.67;;;16.77;;
1336;SDS011;662;48.814;9.318;2023-03-01T15:10:28;19.93;;;16.90;;
1336;SDS011;662;48.814;9.318;2023-03-01T15:12:58;20.40;;;17.67;;
1336;SDS011;662;48.814;9.318;2023-03-01T15:15:42;22.83;;;16.47;;
1336;SDS011;662;48.814;9.318;2023-03-01T15:18:18;20.90;;;16.33;;
1336;SDS011;662;48.814;9.318;2023-03-01T15:20:50;22.10;;;18.10;;
1336;SDS011;662;48.814;9.318;2023-03-01T15:23:34;22.30;;;17.37;;
1336;SDS011;662;48.814;9.318;2023-03-01T15:26:04;22.77;;;17.13;;
1336;SDS011;662;48.814;9.318;2023-03-01T15:28:33;18.83;;;16.63;;
1336;SDS011;662;48.814;9.318;2023-03-01T15:31:03;20.80;;;18.00;;
1336;SDS011;662;48.814;9.318;2023-03-01T15:33:37;23.97;;;17.27;;
1336;SDS011;662;48.814;9.318;2023-03-01T15:36:49;23.60;;;18.73;;
1336;SDS011;662;48.814;9.318;2023-03-01T15:38:57;25.63;;;19.03;;
1336;SDS011;662;48.814;9.318;2023-03-01T15:41:29;24.20;;;17.50;;
1336;SDS011;662;48.814;9.318;2023-03-01T15:43:57;25.87;;;19.47;;
1336;SDS011;662;48.814;9.318;2023-03-01T15:46:25;28.47;;;19.53;;
1336;SDS011;662;48.814;9.318;2023-03-01T15:49:02;25.03;;;19.00;;
1336;SDS011;662;48.814;9.318;2023-03-01T15:54:04;23.17;;;18.50;;
1336;SDS011;662;48.814;9.318;2023-03-01T15:56:38;21.40;;;17.67;;
1336;SDS011;662;48.814;9.318;2023-03-01T15:59:04;24.33;;;19.10;;
1336;SDS011;662;48.814;9.318;2023-03-01T16:01:32;28.53;;;18.50;;
1336;SDS011;662;48.814;9.318;2023-03-01T16:03:59;24.90;;;17.63;;
1336;SDS011;662;48.814;9.318;2023-03-01T16:06:24;21.60;;;17.47;;
1336;SDS011;662;48.814;9.318;2023-03-01T16:08:50;21.23;;;16.40;;
1336;SDS011;662;48.814;9.318;2023-03-01T16:11:18;23.90;;;17.47;;
1336;SDS011;662;48.814;9.318;2023-03-01T16:13:45;21.30;;;17.20;;
1336;SDS011;662;48.814;9.318;2023-03-01T16:16:11;21.73;;;16.97;;
1336;SDS011;662;48.814;9.318;2023-03-01T16:18:41;25.20;;;17.07;;
1336;SDS011;662;48.814;9.318;2023-03-01T16:21:10;23.67;;;18.00;;
1336;SDS011;662;48.814;9.318;2023-03-01T16:23:47;22.40;;;17.10;;
1336;SDS011;662;48.814;9.318;2023-03-01T16:26:13;22.37;;;17.60;;
1336;SDS011;662;48.814;9.318;2023-03-01T16:28:40;25.53;;;16.73;;
1336;SDS011;662;48.814;9.318;2023-03-01T16:31:09;24.97;;;18.07;;
1336;SDS011;662;48.814;9.318;2023-03-01T16:33:36;19.17;;;17.07;;
1336;SDS011;662;48.814;9.318;2023-03-01T16:36:09;20.23;;;17.23;;
1336;SDS011;662;48.814;9.318;2023-03-01T16:38:36;23.33;;;17.80;;
1336;SDS011;662;48.814;9.318;2023-03-01T16:41:04;22.33;;;17.97;;
1336;SDS011;662;48.814;9.318;2023-03-01T16:43:30;23.93;;;18.63;;
1336;SDS011;662;48.814;9.318;2023-03-01T16:45:56;18.50;;;16.17;;
1336;SDS011;662;48.814;9.318;2023-03-01T16:48:23;23.47;;;17.60;;
1336;SDS011;662;48.814;9.318;2023-03-01T16:50:59;21.50;;;17.10;;
1336;SDS011;662;48.814;9.318;2023-03-01T16:53:26;20.77;;;15.87;;
1336;SDS011;662;48.814;9.318;2023-03-01T16:55:54;23.80;;;18.17;;
1336;SDS011;662;48.814;9.318;2023-03-01T16:58:23;22.17;;;17.60;;
1336;SDS011;662;48.814;9.318;2023-03-01T17:00:52;20.43;;;15.70;;
1336;SDS011;662;48.814;9.318;2023-03-01T17:03:20;22.73;;;17.13;;
1336;SDS011;662;48.814;9.318;2023-03-01T17:05:46;22.30;;;16.77;;
1336;SDS011;662;48.814;9.318;2023-03-01T17:08:12;21.93;;;16.80;;
1336;SDS011;662;48.814;9.318;2023-03-01T17:10:37;24.67;;;18.40;;
1336;SDS011;662;48.814;9.318;2023-03-01T17:13:03;22.07;;;16.87;;
1336;SDS011;662;48.814;9.318;2023-03-01T17:15:29;22.13;;;17.90;;
1336;SDS011;662;48.814;9.318;2023-03-01T17:17:54;20.47;;;16.30;;
1336;SDS011;662;48.814;9.318;2023-03-01T17:20:20;20.13;;;16.00;;
1336;SDS011;662;48.814;9.318;2023-03-01T17:22:46;20.50;;;15.90;;
1336;SDS011;662;48.814;9.318;2023-03-01T17:25:11;20.30;;;16.90;;
1336;SDS011;662;48.814;9.318;2023-03-01T17:27:38;24.63;;;16.73;;
1336;SDS011;662;48.814;9.318;2023-03-01T17:30:04;20.67;;;16.20;;
1336;SDS011;662;48.814;9.318;2023-03-01T17:32:31;23.57;;;16.80;;